| Data: 02/05/2026, Hora: 19:45 | |||||
| Act. | Màx. | Hora màxima | Mín. | Hora mínima | |
| Temperatura | 15,6 °C | 20,6 °C | 14:17 | 13,9 °C | 08:32 |
| Humitat | 70 % | 100 % | 05:02 | 45 % | 14:22 |
| Pressió | 1.020,7 hPa | 1.025,1 hPa | 02:07 | 1.020,7 hPa | 19:42 |
| Vent | 0 km/h | 18 km/h | 17:32 | ![]() |
|
| Direcció | N | ||||
| Precipitació | 0,0 mm | ||||
| Horari | Temperatura | Humitat | Pressió | Vent | Pluja | ||||||||
| Act. | Màx. | Mín. | Act. | Màx. | Mín. | Act. | Màx. | Mín. | Act. | Dir. | Màx. | ||
| 00:01 - 01:00 | 14,4 | 14,4 | 14,4 | 76 | 76 | 76 | 1024,9 | 1025,1 | 1024,8 | 1 | NE | 10 | |
| 01:01 - 02:00 | 14,4 | 14,4 | 14,4 | 76 | 77 | 73 | 1025,1 | 1025,1 | 1025,1 | 1 | NNE | 13 | |
| 02:01 - 03:00 | 14,5 | 15,0 | 14,4 | 75 | 80 | 73 | 1024,7 | 1025,1 | 1024,4 | 1 | NNE | 13 | |
| 03:01 - 04:00 | 14,1 | 15,0 | 13,9 | 92 | 100 | 81 | 1024,2 | 1024,4 | 1024,1 | 0 | NNE | 8 | |
| 04:01 - 05:00 | 14,1 | 14,4 | 13,9 | 100 | 100 | 99 | 1023,9 | 1024,1 | 1023,8 | 0 | NE | 6 | |
| 05:01 - 06:00 | 14,0 | 14,4 | 13,9 | 98 | 100 | 95 | 1023,8 | 1023,8 | 1023,8 | 1 | NE | 13 | |
| 06:01 - 07:00 | 13,9 | 13,9 | 13,9 | 94 | 96 | 93 | 1023,8 | 1023,8 | 1023,8 | 1 | ENE | 8 | |
| 07:01 - 08:00 | 13,9 | 13,9 | 13,9 | 92 | 94 | 89 | 1023,9 | 1024,1 | 1023,8 | 1 | NE | 10 | |
| 08:01 - 09:00 | 14,1 | 14,4 | 13,9 | 86 | 89 | 83 | 1024,2 | 1024,4 | 1024,1 | 0 | N | 10 | |
| 09:01 - 10:00 | 14,8 | 15,0 | 14,4 | 76 | 83 | 72 | 1024,3 | 1024,4 | 1024,1 | 0 | N | 3 | |
| 10:01 - 11:00 | 15,0 | 15,0 | 15,0 | 72 | 73 | 70 | 1024,4 | 1024,4 | 1024,4 | 0 | N | 6 | |
| 11:01 - 12:00 | 15,9 | 16,7 | 15,0 | 70 | 73 | 65 | 1024,3 | 1024,4 | 1024,1 | 1 | NNE | 10 | |
| 12:01 - 13:00 | 16,8 | 17,2 | 16,7 | 65 | 65 | 64 | 1024,2 | 1024,4 | 1023,8 | 2 | ENE | 16 | |
| 13:01 - 14:00 | 18,5 | 19,4 | 17,2 | 58 | 64 | 52 | 1023,9 | 1024,1 | 1023,8 | 2 | S | 10 | |
| 14:01 - 15:00 | 19,8 | 20,6 | 19,0 | 50 | 55 | 45 | 1023,8 | 1023,8 | 1023,8 | 5 | WNW | 18 | |
| 15:01 - 16:00 | 18,2 | 18,9 | 17,2 | 61 | 67 | 56 | 1023,5 | 1023,8 | 1023,1 | 4 | W | 18 | |
| 16:01 - 17:00 | 18,5 | 19,4 | 17,2 | 60 | 69 | 51 | 1022,7 | 1023,1 | 1022,4 | 4 | NW | 16 | |
| 17:01 - 18:00 | 17,8 | 18,9 | 17,2 | 62 | 65 | 57 | 1022,2 | 1022,4 | 1022,1 | 2 | W | 18 | |
| 18:01 - 19:00 | 16,9 | 17,2 | 16,7 | 61 | 66 | 59 | 1021,7 | 1022,1 | 1021,0 | 3 | WNW | 16 | |
| 19:01 - 19:45 | 16,0 | 16,7 | 15,6 | 69 | 70 | 67 | 1020,9 | 1021,0 | 1020,7 | 3 | WSW | 13 | |
| 15,8 | 20,6 | 13,9 | 75 | 100 | 45 | 1023,8 | 1025,1 | 1020,7 | 2 | ESE | 18 | 0,0 | |